Terminal Aerodrome Forecast
Issued by NWS Cleveland, OH

Home | Current Version | Previous Version | Text Only | Print | Product List | Glossary Off
Versions: 1 2 3 4 5 6 7 8 9 10 11 12 13 14 15 16 17 18 19 20 21

000
FTUS41 KCLE 031017 AAA
TAFCAK
TAF AMD
KCAK 031017Z 0310/0406 21010G15KT P6SM -SHRA SCT025 OVC060
      WS020/19060KT
      TEMPO 0310/0312 3SM -SHRA BKN015 OVC025
     FM031200 20020G30KT P6SM VCSH SCT025 OVC035
     FM031700 23015G25KT P6SM BKN035 OVC050
     FM040400 25015G25KT P6SM OVC025=

USA.gov is the U.S. government's official web portal to all federal, state and local government web resources and services.